createdAt,value
2022-11-15T00:01:18.995Z,8.40
2022-11-15T00:03:47.848Z,8.40
2022-11-15T00:06:16.369Z,8.40
2022-11-15T00:08:44.535Z,8.40
2022-11-15T00:11:13.971Z,8.40
2022-11-15T00:13:42.109Z,8.40
2022-11-15T00:16:12.128Z,8.30
2022-11-15T00:18:46.408Z,8.30
2022-11-15T00:21:18.935Z,8.30
2022-11-15T00:23:47.164Z,8.30
2022-11-15T00:26:17.432Z,8.30
2022-11-15T00:28:45.548Z,8.30
2022-11-15T00:31:15.959Z,8.30
2022-11-15T00:33:47.151Z,8.30
2022-11-15T00:36:15.300Z,8.30
2022-11-15T00:38:43.484Z,8.30
2022-11-15T00:41:11.612Z,8.30
2022-11-15T00:43:40.823Z,8.20
2022-11-15T00:46:10.474Z,8.30
2022-11-15T00:48:38.786Z,8.20
2022-11-15T00:51:08.251Z,8.20
2022-11-15T00:53:36.375Z,8.20
2022-11-15T00:56:04.560Z,8.20
2022-11-15T00:58:33.114Z,8.20
2022-11-15T01:01:08.268Z,8.20
2022-11-15T01:03:36.817Z,8.20
2022-11-15T01:06:07.308Z,8.20
2022-11-15T01:08:35.683Z,8.10
2022-11-15T01:11:04.990Z,8.20
2022-11-15T01:13:34.111Z,8.10
2022-11-15T01:16:07.474Z,8.20
2022-11-15T01:18:35.725Z,8.10
2022-11-15T01:21:09.544Z,8.10
2022-11-15T01:23:37.630Z,8.10
2022-11-15T01:26:08.402Z,8.00
2022-11-15T01:28:39.111Z,7.80
2022-11-15T01:31:12.287Z,7.80
2022-11-15T01:33:40.326Z,7.80
2022-11-15T01:36:13.437Z,7.80
2022-11-15T01:38:41.532Z,7.80
2022-11-15T01:41:17.156Z,7.90
2022-11-15T01:43:45.509Z,7.90
2022-11-15T01:46:27.329Z,7.90
2022-11-15T01:48:57.016Z,7.90
2022-11-15T01:51:30.262Z,8.00
2022-11-15T01:54:03.756Z,8.00
2022-11-15T01:56:35.588Z,8.00
2022-11-15T01:59:05.966Z,8.00
2022-11-15T02:01:35.790Z,8.00
2022-11-15T02:04:10.146Z,8.00
2022-11-15T02:06:41.049Z,8.00
2022-11-15T02:09:09.008Z,8.00
2022-11-15T02:11:37.253Z,8.00
2022-11-15T02:14:07.110Z,8.10
2022-11-15T02:16:47.156Z,8.00
2022-11-15T02:19:31.244Z,7.90
2022-11-15T02:22:13.015Z,7.90
2022-11-15T02:25:03.241Z,7.90
2022-11-15T02:28:05.575Z,8.00
2022-11-15T02:30:42.745Z,8.00
2022-11-15T02:33:21.651Z,7.90
2022-11-15T02:35:59.363Z,7.90
2022-11-15T02:38:33.765Z,7.90
2022-11-15T02:41:05.158Z,7.90
2022-11-15T02:43:57.785Z,7.90
2022-11-15T02:46:52.029Z,7.90
2022-11-15T02:49:20.948Z,7.90
2022-11-15T02:51:51.381Z,7.90
2022-11-15T02:54:24.487Z,7.90
2022-11-15T02:56:56.718Z,7.90
2022-11-15T03:00:04.300Z,7.90
2022-11-15T03:02:56.173Z,7.90
2022-11-15T03:05:32.487Z,7.90
2022-11-15T03:08:07.943Z,7.90
2022-11-15T03:10:48.012Z,7.90
2022-11-15T03:13:27.304Z,7.90
2022-11-15T03:16:04.012Z,7.80
2022-11-15T03:18:37.784Z,7.80
2022-11-15T03:21:09.362Z,7.90
2022-11-15T03:23:39.224Z,7.80
2022-11-15T03:26:11.614Z,7.80
2022-11-15T03:28:43.604Z,7.80
2022-11-15T03:31:29.502Z,7.70
2022-11-15T03:34:01.831Z,7.70
2022-11-15T03:36:31.957Z,7.70
2022-11-15T03:39:07.035Z,7.70
2022-11-15T03:41:42.018Z,7.70
2022-11-15T03:44:19.925Z,7.70
2022-11-15T03:46:53.909Z,7.70
2022-11-15T03:49:27.837Z,7.70
2022-11-15T03:51:58.225Z,7.70
2022-11-15T03:54:26.394Z,7.70
2022-11-15T03:56:54.489Z,7.70
2022-11-15T03:59:22.483Z,7.70
2022-11-15T04:01:50.448Z,7.70
2022-11-15T04:04:18.493Z,7.70
2022-11-15T04:06:48.296Z,7.60
2022-11-15T04:09:16.532Z,7.40
2022-11-15T04:12:03.436Z,7.30
2022-11-15T04:14:33.480Z,7.30
2022-11-15T04:17:01.496Z,7.40
2022-11-15T04:19:55.352Z,7.40
2022-11-15T04:22:42.283Z,7.40
2022-11-15T04:25:10.301Z,7.40
2022-11-15T04:27:38.280Z,7.40
2022-11-15T04:30:07.795Z,7.50
2022-11-15T04:32:35.808Z,7.50
2022-11-15T04:35:03.886Z,7.50
2022-11-15T04:37:33.288Z,7.50
2022-11-15T04:40:01.677Z,7.50
2022-11-15T04:42:29.665Z,7.40
2022-11-15T04:44:57.880Z,7.40
2022-11-15T04:47:26.038Z,7.40
2022-11-15T04:49:54.426Z,7.40
2022-11-15T04:52:22.462Z,7.50
2022-11-15T04:54:51.840Z,7.50
2022-11-15T04:57:20.145Z,7.50
2022-11-15T04:59:48.590Z,7.40
2022-11-15T05:02:16.612Z,7.40
2022-11-15T05:04:43.651Z,7.50
2022-11-15T05:07:12.166Z,7.40
2022-11-15T05:09:40.262Z,7.50
2022-11-15T05:12:09.735Z,7.50
2022-11-15T05:14:37.799Z,7.40
2022-11-15T05:17:05.796Z,7.40
2022-11-15T05:19:34.349Z,7.50
2022-11-15T05:22:02.440Z,7.50
2022-11-15T05:24:30.587Z,7.50
2022-11-15T05:26:58.551Z,7.50
2022-11-15T05:29:28.003Z,7.50
2022-11-15T05:31:56.746Z,7.50
2022-11-15T05:34:25.666Z,7.50
2022-11-15T05:36:53.945Z,7.50
2022-11-15T05:39:22.105Z,7.40
2022-11-15T05:41:53.399Z,7.40
2022-11-15T05:44:26.971Z,7.40
2022-11-15T05:46:57.751Z,7.50
2022-11-15T05:49:31.618Z,7.40
2022-11-15T05:52:00.437Z,7.40
2022-11-15T05:54:28.567Z,7.40
2022-11-15T05:56:56.941Z,7.40
2022-11-15T05:59:25.216Z,7.30
2022-11-15T06:01:53.349Z,7.20
2022-11-15T06:04:22.870Z,7.20
2022-11-15T06:06:51.036Z,7.20
2022-11-15T06:09:19.017Z,7.20
2022-11-15T06:11:46.947Z,7.20
2022-11-15T06:14:14.961Z,7.10
2022-11-15T06:16:42.891Z,7.20
2022-11-15T06:19:10.758Z,7.20
2022-11-15T06:21:40.309Z,7.10
2022-11-15T06:24:09.135Z,7.20
2022-11-15T06:26:37.143Z,7.20
2022-11-15T06:29:06.195Z,7.20
2022-11-15T06:31:35.247Z,7.20
2022-11-15T06:34:03.523Z,7.20
2022-11-15T06:36:31.393Z,7.20
2022-11-15T06:39:00.823Z,7.20
2022-11-15T06:41:28.744Z,7.30
2022-11-15T06:43:56.770Z,7.30
2022-11-15T06:46:24.937Z,7.30
2022-11-15T06:48:53.219Z,7.30
2022-11-15T06:51:21.656Z,7.30
2022-11-15T06:53:49.829Z,7.30
2022-11-15T06:56:19.127Z,7.30
2022-11-15T06:58:47.723Z,6.80
2022-11-15T07:01:15.781Z,6.50
2022-11-15T07:03:44.663Z,6.40
2022-11-15T07:06:12.844Z,6.20
2022-11-15T07:08:42.648Z,6.20
2022-11-15T07:11:11.660Z,6.20
2022-11-15T07:13:40.908Z,6.20
2022-11-15T07:16:11.087Z,6.20
2022-11-15T07:18:40.837Z,6.30
2022-11-15T07:21:10.777Z,6.30
2022-11-15T07:23:39.722Z,6.40
2022-11-15T07:26:08.558Z,6.50
2022-11-15T07:28:37.253Z,6.60
2022-11-15T07:31:08.136Z,6.60
2022-11-15T07:33:36.646Z,6.70
2022-11-15T07:36:05.728Z,6.80
2022-11-15T07:38:39.386Z,6.90
2022-11-15T07:41:10.563Z,6.90
2022-11-15T07:43:38.716Z,7.00
2022-11-15T07:46:10.352Z,7.10
2022-11-15T07:48:44.437Z,7.00
2022-11-15T07:51:15.096Z,7.00
2022-11-15T07:53:43.460Z,6.90
2022-11-15T07:56:12.004Z,7.00
2022-11-15T07:58:40.014Z,6.90
2022-11-15T08:01:11.018Z,6.90
2022-11-15T08:03:39.386Z,7.00
2022-11-15T08:06:07.665Z,7.00
2022-11-15T08:08:35.794Z,7.10
2022-11-15T08:11:03.872Z,7.20
2022-11-15T08:13:32.433Z,7.20
2022-11-15T08:16:01.794Z,7.30
2022-11-15T08:18:31.352Z,7.30
2022-11-15T08:21:01.634Z,7.40
2022-11-15T08:23:30.769Z,7.40
2022-11-15T08:26:03.996Z,7.40
2022-11-15T08:28:32.109Z,7.50
2022-11-15T08:31:00.183Z,7.50
2022-11-15T08:33:28.781Z,7.60
2022-11-15T08:36:00.612Z,7.70
2022-11-15T08:38:29.968Z,7.70
2022-11-15T08:41:03.310Z,7.80
2022-11-15T08:43:31.748Z,7.80
2022-11-15T08:46:00.717Z,7.90
2022-11-15T08:48:28.848Z,7.90
2022-11-15T08:50:57.605Z,7.90
2022-11-15T08:53:26.999Z,8.00
2022-11-15T08:55:54.993Z,8.00
2022-11-15T08:58:23.062Z,8.10
2022-11-15T09:00:51.025Z,8.10
2022-11-15T09:03:19.120Z,8.00
2022-11-15T09:05:47.159Z,8.00
2022-11-15T09:08:45.649Z,8.00
2022-11-15T09:11:07.181Z,8.00
2022-11-15T09:13:35.698Z,8.00
2022-11-15T09:16:03.754Z,8.10
2022-11-15T09:18:32.830Z,8.10
2022-11-15T09:21:03.217Z,8.10
2022-11-15T09:23:31.474Z,8.20
2022-11-15T09:26:03.785Z,8.40
2022-11-15T09:28:35.441Z,8.50
2022-11-15T09:31:06.166Z,8.60
2022-11-15T09:33:34.817Z,8.70
2022-11-15T09:36:03.747Z,8.60
2022-11-15T09:38:32.587Z,8.70
2022-11-15T09:41:20.041Z,8.70
2022-11-15T09:43:59.115Z,8.70
2022-11-15T09:46:35.514Z,8.70
2022-11-15T09:49:04.990Z,8.80
2022-11-15T09:51:37.161Z,8.90
2022-11-15T09:54:50.981Z,9.00
2022-11-15T09:57:13.152Z,9.20
2022-11-15T10:00:07.683Z,9.30
2022-11-15T10:02:59.410Z,9.40
2022-11-15T10:05:29.945Z,9.50
2022-11-15T10:08:03.399Z,9.50
2022-11-15T10:10:39.688Z,9.50
2022-11-15T10:13:15.343Z,9.50
2022-11-15T10:15:48.843Z,9.60
2022-11-15T10:18:20.307Z,9.60
2022-11-15T10:20:51.389Z,9.60
2022-11-15T10:23:21.974Z,9.70
2022-11-15T10:25:52.673Z,9.70
2022-11-15T10:28:28.099Z,9.80
2022-11-15T10:30:59.352Z,9.80
2022-11-15T10:33:34.620Z,9.80
2022-11-15T10:36:25.719Z,9.90
2022-11-15T10:38:57.008Z,10.10
2022-11-15T10:41:32.836Z,10.10
2022-11-15T10:44:11.780Z,10.10
2022-11-15T10:46:47.486Z,10.20
2022-11-15T10:49:18.145Z,10.20
2022-11-15T10:51:49.737Z,10.30
2022-11-15T10:54:25.163Z,10.40
2022-11-15T10:56:56.072Z,10.40
2022-11-15T10:59:28.784Z,10.50
2022-11-15T11:01:58.391Z,10.50
2022-11-15T11:04:26.421Z,10.60
2022-11-15T11:06:56.909Z,10.70
2022-11-15T11:09:31.024Z,10.70
2022-11-15T11:11:59.501Z,10.80
2022-11-15T11:14:42.120Z,10.80
2022-11-15T11:17:19.795Z,10.90
2022-11-15T11:19:58.638Z,10.90
2022-11-15T11:22:34.506Z,10.90
2022-11-15T11:25:19.935Z,11.00
2022-11-15T11:27:59.391Z,11.00
2022-11-15T11:30:40.387Z,11.00
2022-11-15T11:33:18.264Z,11.10
2022-11-15T11:36:01.618Z,11.10
2022-11-15T11:38:42.151Z,11.10
2022-11-15T11:41:19.480Z,11.20
2022-11-15T11:43:59.554Z,11.20
2022-11-15T11:46:42.877Z,11.20
2022-11-15T11:49:17.198Z,11.20
2022-11-15T11:51:51.405Z,11.30
2022-11-15T11:54:24.234Z,11.30
2022-11-15T11:56:53.615Z,11.40
2022-11-15T11:59:29.944Z,11.40
2022-11-15T12:01:59.526Z,11.50
2022-11-15T12:04:32.811Z,11.50
2022-11-15T12:07:05.045Z,11.50
2022-11-15T12:09:37.435Z,11.50
2022-11-15T12:12:11.076Z,11.50
2022-11-15T12:14:45.007Z,11.60
2022-11-15T12:17:13.904Z,11.60
2022-11-15T12:19:43.837Z,11.60
2022-11-15T12:22:16.506Z,11.60
2022-11-15T12:24:47.821Z,11.70
2022-11-15T12:27:26.101Z,11.70
2022-11-15T12:29:58.478Z,11.80
2022-11-15T12:32:30.724Z,11.80
2022-11-15T12:35:01.096Z,11.90
2022-11-15T12:37:49.274Z,11.80
2022-11-15T12:40:36.717Z,11.80
2022-11-15T12:43:37.512Z,11.80
2022-11-15T12:46:12.709Z,11.80
2022-11-15T12:48:55.560Z,11.90
2022-11-15T12:51:45.316Z,11.80
2022-11-15T12:55:05.435Z,11.80
2022-11-15T12:57:41.745Z,11.80
2022-11-15T13:00:48.007Z,11.80
2022-11-15T13:03:28.115Z,11.90
2022-11-15T13:06:05.323Z,11.90
2022-11-15T13:08:55.774Z,11.90
2022-11-15T13:12:00.691Z,11.90
2022-11-15T13:14:53.316Z,11.90
2022-11-15T13:17:41.676Z,12.00
2022-11-15T13:20:25.575Z,11.90
2022-11-15T13:23:00.284Z,11.90
2022-11-15T13:25:50.829Z,12.00
2022-11-15T13:28:26.685Z,12.00
2022-11-15T13:30:56.496Z,12.00
2022-11-15T13:33:31.588Z,12.00
2022-11-15T13:36:05.611Z,11.90
2022-11-15T13:38:35.825Z,12.00
2022-11-15T13:41:21.027Z,11.90
2022-11-15T13:43:49.686Z,11.90
2022-11-15T13:46:20.466Z,11.80
2022-11-15T13:48:53.158Z,11.80
2022-11-15T13:51:22.881Z,11.70
2022-11-15T13:53:56.142Z,11.60
2022-11-15T13:56:27.018Z,11.50
2022-11-15T13:58:55.860Z,11.40
2022-11-15T14:01:25.373Z,11.40
2022-11-15T14:03:58.202Z,11.30
2022-11-15T14:06:28.233Z,11.20
2022-11-15T14:09:37.947Z,11.10
2022-11-15T14:12:28.829Z,11.10
2022-11-15T14:14:57.534Z,11.00
2022-11-15T14:17:37.612Z,10.90
2022-11-15T14:20:32.776Z,10.90
2022-11-15T14:23:02.484Z,10.80
2022-11-15T14:25:31.282Z,10.80
2022-11-15T14:28:30.676Z,10.80
2022-11-15T14:31:01.213Z,10.80
2022-11-15T14:33:31.946Z,10.70
2022-11-15T14:36:12.968Z,10.70
2022-11-15T14:38:41.102Z,10.70
2022-11-15T14:41:21.065Z,10.70
2022-11-15T14:43:51.260Z,10.60
2022-11-15T14:46:19.713Z,10.70
2022-11-15T14:48:47.937Z,10.60
2022-11-15T14:51:34.996Z,10.60
2022-11-15T14:54:23.173Z,10.60
2022-11-15T14:56:53.364Z,10.50
2022-11-15T14:59:22.662Z,10.50
2022-11-15T15:01:50.571Z,10.50
2022-11-15T15:04:18.604Z,10.40
2022-11-15T15:06:46.836Z,10.40
2022-11-15T15:09:14.825Z,10.30
2022-11-15T15:11:42.896Z,10.30
2022-11-15T15:14:11.153Z,10.30
2022-11-15T15:16:40.547Z,10.20
2022-11-15T15:19:08.696Z,10.20
2022-11-15T15:21:37.749Z,10.10
2022-11-15T15:24:05.970Z,10.10
2022-11-15T15:26:35.923Z,10.00
2022-11-15T15:29:04.137Z,10.00
2022-11-15T15:31:33.691Z,10.00
2022-11-15T15:34:03.110Z,10.00
2022-11-15T15:36:31.262Z,9.90
2022-11-15T15:38:59.287Z,9.90
2022-11-15T15:41:27.276Z,9.90
2022-11-15T15:43:55.477Z,9.90
2022-11-15T15:46:23.808Z,9.90
2022-11-15T15:48:52.203Z,9.80
2022-11-15T15:51:21.630Z,9.80
2022-11-15T15:53:51.903Z,9.80
2022-11-15T15:56:20.113Z,9.80
2022-11-15T15:58:48.431Z,9.80
2022-11-15T16:01:16.651Z,9.80
2022-11-15T16:03:44.685Z,9.90
2022-11-15T16:06:37.296Z,10.00
2022-11-15T16:09:15.700Z,10.20
2022-11-15T16:11:46.417Z,10.30
2022-11-15T16:14:15.043Z,10.40
2022-11-15T16:16:43.277Z,10.40
2022-11-15T16:19:13.533Z,10.50
2022-11-15T16:21:43.598Z,10.50
2022-11-15T16:24:11.823Z,10.60
2022-11-15T16:26:40.140Z,10.60
2022-11-15T16:29:10.142Z,10.60
2022-11-15T16:31:38.546Z,10.60
2022-11-15T16:34:07.289Z,10.70
2022-11-15T16:36:36.735Z,10.70
2022-11-15T16:39:06.338Z,10.70
2022-11-15T16:41:34.805Z,10.70
2022-11-15T16:44:03.172Z,10.70
2022-11-15T16:46:31.326Z,10.70
2022-11-15T16:48:59.413Z,10.70
2022-11-15T16:51:27.579Z,10.70
2022-11-15T16:53:55.966Z,10.60
2022-11-15T16:56:28.008Z,10.60
2022-11-15T16:58:58.707Z,10.60
2022-11-15T17:01:28.591Z,10.60
2022-11-15T17:03:57.690Z,10.60
2022-11-15T17:06:27.671Z,10.60
2022-11-15T17:08:56.656Z,10.60
2022-11-15T17:11:26.492Z,10.60
2022-11-15T17:13:59.130Z,10.60
2022-11-15T17:16:27.476Z,10.60
2022-11-15T17:18:55.755Z,10.60
2022-11-15T17:21:24.308Z,10.60
2022-11-15T17:23:53.569Z,10.60
2022-11-15T17:26:30.241Z,10.60
2022-11-15T17:29:01.718Z,10.60
2022-11-15T17:31:33.622Z,10.60
2022-11-15T17:34:02.471Z,10.50
2022-11-15T17:36:30.946Z,10.50
2022-11-15T17:38:59.968Z,10.50
2022-11-15T17:41:29.381Z,10.50
2022-11-15T17:43:59.089Z,10.50
2022-11-15T17:46:30.627Z,10.50
2022-11-15T17:48:59.392Z,10.50
2022-11-15T17:51:27.827Z,10.40
2022-11-15T17:53:57.087Z,10.50
2022-11-15T17:56:27.597Z,10.50
2022-11-15T17:58:56.805Z,10.40
2022-11-15T18:01:26.933Z,10.40
2022-11-15T18:03:57.187Z,10.40
2022-11-15T18:06:26.413Z,10.40
2022-11-15T18:08:56.082Z,10.40
2022-11-15T18:11:26.169Z,10.30
2022-11-15T18:13:55.526Z,10.40
2022-11-15T18:16:26.403Z,10.40
2022-11-15T18:18:56.452Z,10.30
2022-11-15T18:21:26.159Z,10.30
2022-11-15T18:23:56.839Z,10.30
2022-11-15T18:26:27.864Z,10.30
2022-11-15T18:28:57.946Z,10.30
2022-11-15T18:31:27.840Z,10.30
2022-11-15T18:33:59.557Z,10.30
2022-11-15T18:36:30.734Z,10.30
2022-11-15T18:39:00.745Z,10.30
2022-11-15T18:41:29.569Z,10.30
2022-11-15T18:43:58.916Z,10.30
2022-11-15T18:46:28.642Z,10.20
2022-11-15T18:49:00.121Z,10.20
2022-11-15T18:51:30.534Z,10.20
2022-11-15T18:54:01.259Z,10.20
2022-11-15T18:56:30.761Z,10.20
2022-11-15T18:59:01.938Z,10.20
2022-11-15T19:01:32.729Z,10.20
2022-11-15T19:04:08.101Z,10.20
2022-11-15T19:06:40.145Z,10.20
2022-11-15T19:09:09.410Z,10.20
2022-11-15T19:11:39.651Z,10.20
2022-11-15T19:14:09.559Z,10.20
2022-11-15T19:16:43.823Z,10.20
2022-11-15T19:19:15.905Z,10.20
2022-11-15T19:21:44.305Z,10.20
2022-11-15T19:24:12.917Z,10.10
2022-11-15T19:26:41.260Z,10.10
2022-11-15T19:29:11.265Z,10.10
2022-11-15T19:31:39.762Z,10.00
2022-11-15T19:34:08.644Z,10.00
2022-11-15T19:36:39.939Z,10.00
2022-11-15T19:39:10.080Z,10.00
2022-11-15T19:41:57.090Z,10.00
2022-11-15T19:44:30.965Z,9.90
2022-11-15T19:46:58.960Z,9.90
2022-11-15T19:49:27.475Z,9.90
2022-11-15T19:51:57.244Z,10.00
2022-11-15T19:54:25.231Z,10.00
2022-11-15T19:56:53.447Z,10.00
2022-11-15T19:59:21.737Z,9.90
2022-11-15T20:01:50.433Z,9.90
2022-11-15T20:04:18.498Z,9.90
2022-11-15T20:06:46.763Z,9.90
2022-11-15T20:09:17.523Z,9.90
2022-11-15T20:11:46.105Z,9.90
2022-11-15T20:14:14.423Z,9.90
2022-11-15T20:16:42.635Z,9.90
2022-11-15T20:19:12.304Z,9.90
2022-11-15T20:21:40.474Z,9.90
2022-11-15T20:24:09.040Z,9.90
2022-11-15T20:26:38.996Z,9.90
2022-11-15T20:29:07.214Z,9.90
2022-11-15T20:31:35.337Z,9.90
2022-11-15T20:34:03.360Z,9.90
2022-11-15T20:36:31.396Z,9.90
2022-11-15T20:39:00.382Z,9.90
2022-11-15T20:41:29.388Z,9.90
2022-11-15T20:43:59.437Z,9.90
2022-11-15T20:46:27.615Z,9.90
2022-11-15T20:48:55.590Z,9.90
2022-11-15T20:51:23.685Z,9.90
2022-11-15T20:53:52.196Z,9.90
2022-11-15T20:56:22.152Z,9.90
2022-11-15T20:58:51.128Z,9.80
2022-11-15T21:01:23.531Z,9.80
2022-11-15T21:03:52.623Z,9.90
2022-11-15T21:06:21.036Z,9.80
2022-11-15T21:09:06.825Z,9.90
2022-11-15T21:11:52.117Z,9.90
2022-11-15T21:14:20.317Z,9.90
2022-11-15T21:16:49.817Z,9.90
2022-11-15T21:19:18.540Z,9.80
2022-11-15T21:21:48.661Z,9.90
2022-11-15T21:24:16.599Z,9.80
2022-11-15T21:26:44.593Z,9.80
2022-11-15T21:29:17.460Z,9.80
2022-11-15T21:31:45.701Z,9.80
2022-11-15T21:34:15.641Z,9.80
2022-11-15T21:36:44.399Z,9.80
2022-11-15T21:39:12.584Z,9.80
2022-11-15T21:41:41.381Z,9.80
2022-11-15T21:44:10.243Z,9.80
2022-11-15T21:46:38.264Z,9.80
2022-11-15T21:49:07.111Z,9.80
2022-11-15T21:51:36.777Z,9.80
2022-11-15T21:54:05.030Z,9.80
2022-11-15T21:56:33.652Z,9.80
2022-11-15T21:59:01.740Z,9.80
2022-11-15T22:01:47.402Z,9.80
2022-11-15T22:04:15.897Z,9.80
2022-11-15T22:06:45.365Z,9.80
2022-11-15T22:09:13.781Z,9.70
2022-11-15T22:11:42.037Z,9.70
2022-11-15T22:14:10.294Z,9.70
2022-11-15T22:16:39.284Z,9.70
2022-11-15T22:19:07.331Z,9.70
2022-11-15T22:21:35.906Z,9.70
2022-11-15T22:24:06.327Z,9.70
2022-11-15T22:26:34.537Z,9.70
2022-11-15T22:29:02.827Z,9.70
2022-11-15T22:31:30.964Z,9.70
2022-11-15T22:33:59.127Z,9.70
2022-11-15T22:36:35.864Z,9.70
2022-11-15T22:39:12.465Z,9.70
2022-11-15T22:41:40.610Z,9.70
2022-11-15T22:44:08.771Z,9.70
2022-11-15T22:46:36.961Z,9.70
2022-11-15T22:49:06.724Z,9.70
2022-11-15T22:51:34.773Z,9.70
2022-11-15T22:54:03.109Z,9.80
2022-11-15T22:56:32.636Z,9.80
2022-11-15T22:59:00.794Z,9.70
2022-11-15T23:01:28.887Z,9.80
2022-11-15T23:03:57.077Z,9.70
2022-11-15T23:06:25.345Z,9.70
2022-11-15T23:08:53.597Z,9.70
2022-11-15T23:11:39.060Z,9.70
2022-11-15T23:14:08.598Z,9.70
2022-11-15T23:16:36.723Z,9.70
2022-11-15T23:19:07.444Z,9.60
2022-11-15T23:21:54.694Z,9.70
2022-11-15T23:24:23.161Z,9.60
2022-11-15T23:26:54.004Z,9.70
2022-11-15T23:29:25.008Z,9.70
2022-11-15T23:32:11.474Z,9.70
2022-11-15T23:34:41.196Z,9.60
2022-11-15T23:37:11.207Z,9.60
2022-11-15T23:39:39.991Z,9.60
2022-11-15T23:42:09.569Z,9.60
2022-11-15T23:44:39.297Z,9.60
2022-11-15T23:47:07.357Z,9.60
2022-11-15T23:49:35.508Z,9.60
2022-11-15T23:52:03.920Z,9.60
2022-11-15T23:54:31.988Z,9.60
2022-11-15T23:57:00.134Z,9.60
2022-11-15T23:59:28.231Z,9.60
